Weather at Bremen Airport

Public forecast

Using degrees Celsius for public forecast. Weather courtesy of forecast.io.

Current aviation weather report (METAR) for Bremen Airport

2024/05/30 22:50 (retrieved 35 minutes ago)

EDDW 302250Z AUTO 31006KT 9999 -SHRA FEW038 FEW///TCU 15/13 Q1006

Aviation forecast (TAF) for Bremen Airport

2024/05/30 19:41 Ammendment (retrieved 4 hours ago)

TAF AMD EDDW 301928Z 3019/3118 32007KT 9999 FEW030 TEMPO 3019/3023 03004KT TEMPO 3019/3021 SHRA SCT030CB TEMPO 3102/3109 2500 RA BKN004 PROB30 TEMPO 3111/3117 SHRA SCT025CB